Enter the Airport ICAO Code

Search by Airport or City

Current Weather

SABE | Jorge Newbery Airpark

Buenos Aires, Argentina

Last Update 38 Minutes Ago

Partly Cloudy Sky

Temperature of 07 ēC

Light Winds from Variable Directions

Temperature

07 ēC

Dew Point Temperature

03 ēC

Relative Humidity

75.71 %

Wind Direction

Variable

Wind Velocity

4 km/h (02 kt)

Gusts

None

Visibility

Reduced to 8.0 Kilometers

Sea Level Pressure

1028 hPa (Hectopascals)

Layers of Clouds

5% to 30% of Sky Covered from 640 mts (2100 ft) Above Ground Level.

30% to 60% of Sky Covered from 2134 mts (7000 ft) Above Ground Level.

METAR SABE 191100Z VRB02KT 8000 FEW021 SCT070 07/03 Q1028 NOSIG

Weather Forecast

SABE | Jorge Newbery Airpark

Buenos Aires, Argentina

Forecast valid for the next 24 Hours

From now on it is expected:

Sky with Few Clouds

Light to Moderate Winds from South

In 3 to 5 hours it is expected the begining of:

Clear Sky

Light to Moderate Winds from SouthEast

In 9 to 12 hours it is expected the begining of:

Light Winds from Variable Directions

In 19 hours it is expected the begining of 4 hours with intermittent periods of:

Sky with Few Clouds

Maximum Temperature

12 ēC in 6 Hours

Minimum Temperature

06 ēC in 22 Hours

TAF SABE 191100Z 1912/2012 16005KT 8000 FEW025 TX12/1918Z TN06/2010Z BECMG 1915/1917 12005KT CAVOK BECMG 1921/1924 VRB03KT PROB30 TEMPO 2007/2011 8000 FEW025